createdAt,value
2022-09-07T00:01:14.661Z,20.88
2022-09-07T00:03:41.537Z,20.33
2022-09-07T00:06:11.374Z,20.31
2022-09-07T00:08:41.041Z,20.91
2022-09-07T00:11:12.815Z,20.88
2022-09-07T00:13:42.934Z,20.24
2022-09-07T00:16:12.426Z,19.92
2022-09-07T00:18:45.842Z,20.82
2022-09-07T00:21:15.663Z,20.73
2022-09-07T00:23:45.000Z,19.87
2022-09-07T00:26:20.457Z,20.73
2022-09-07T00:28:49.033Z,19.65
2022-09-07T00:31:18.735Z,20.47
2022-09-07T00:33:46.555Z,20.35
2022-09-07T00:36:13.916Z,19.81
2022-09-07T00:38:40.885Z,20.23
2022-09-07T00:41:10.075Z,20.60
2022-09-07T00:43:46.498Z,19.68
2022-09-07T00:46:15.671Z,19.58
2022-09-07T00:48:49.829Z,20.26
2022-09-07T00:51:23.496Z,20.02
2022-09-07T00:53:56.926Z,19.90
2022-09-07T00:56:28.556Z,20.67
2022-09-07T00:58:56.506Z,20.68
2022-09-07T01:01:23.582Z,20.57
2022-09-07T01:03:57.588Z,20.02
2022-09-07T01:06:34.414Z,19.82
2022-09-07T01:09:04.591Z,20.37
2022-09-07T01:11:34.120Z,20.55
2022-09-07T01:14:02.525Z,20.43
2022-09-07T01:16:53.260Z,20.67
2022-09-07T01:20:12.725Z,20.52
2022-09-07T01:22:57.465Z,19.55
2022-09-07T01:25:38.716Z,20.43
2022-09-07T01:28:12.266Z,19.33
2022-09-07T01:30:46.344Z,20.16
2022-09-07T01:33:29.375Z,20.03
2022-09-07T01:36:05.791Z,19.35
2022-09-07T01:38:38.348Z,19.73
2022-09-07T01:41:10.202Z,20.05
2022-09-07T01:43:46.268Z,19.02
2022-09-07T01:46:18.733Z,19.99
2022-09-07T01:48:48.632Z,19.11
2022-09-07T01:51:31.868Z,19.47
2022-09-07T01:54:04.823Z,19.60
2022-09-07T01:56:36.685Z,19.46
2022-09-07T01:59:10.512Z,19.88
2022-09-07T02:01:44.083Z,19.60
2022-09-07T02:04:16.925Z,18.93
2022-09-07T02:06:50.542Z,19.84
2022-09-07T02:09:35.295Z,19.25
2022-09-07T02:12:08.319Z,19.42
2022-09-07T02:14:40.277Z,19.87
2022-09-07T02:17:11.215Z,19.10
2022-09-07T02:19:48.968Z,19.37
2022-09-07T02:22:20.382Z,19.59
2022-09-07T02:24:53.820Z,19.67
2022-09-07T02:27:35.522Z,18.87
2022-09-07T02:30:07.263Z,19.48
2022-09-07T02:32:39.046Z,18.93
2022-09-07T02:35:08.626Z,19.59
2022-09-07T02:37:36.598Z,19.56
2022-09-07T02:40:07.134Z,19.10
2022-09-07T02:42:37.391Z,18.65
2022-09-07T02:45:09.906Z,19.44
2022-09-07T02:48:09.351Z,19.25
2022-09-07T02:51:01.797Z,19.28
2022-09-07T02:53:45.245Z,19.17
2022-09-07T02:59:39.565Z,19.45
2022-09-07T03:02:20.047Z,19.46
2022-09-07T03:04:56.921Z,19.21
2022-09-07T03:07:30.399Z,18.30
2022-09-07T03:10:03.745Z,19.47
2022-09-07T03:12:40.020Z,18.76
2022-09-07T03:15:10.622Z,19.21
2022-09-07T03:17:44.062Z,19.41
2022-09-07T03:20:14.041Z,18.69
2022-09-07T03:22:40.967Z,19.35
2022-09-07T03:25:19.113Z,19.22
2022-09-07T03:27:53.757Z,19.12
2022-09-07T03:30:23.985Z,18.15
2022-09-07T03:33:08.740Z,19.02
2022-09-07T03:35:58.940Z,19.23
2022-09-07T03:41:15.508Z,18.56
2022-09-07T03:43:45.595Z,19.14
2022-09-07T03:46:18.332Z,19.14
2022-09-07T03:48:49.934Z,18.97
2022-09-07T03:51:29.458Z,19.06
2022-09-07T03:53:56.758Z,18.59
2022-09-07T03:56:31.898Z,17.89
2022-09-07T03:59:00.635Z,19.01
2022-09-07T04:01:33.561Z,17.93
2022-09-07T04:04:08.703Z,18.97
2022-09-07T04:06:38.289Z,18.96
2022-09-07T04:09:08.706Z,18.93
2022-09-07T04:11:48.653Z,18.86
2022-09-07T04:14:35.903Z,18.26
2022-09-07T04:17:02.891Z,18.09
2022-09-07T04:19:33.248Z,18.84
2022-09-07T04:22:00.273Z,18.89
2022-09-07T04:24:34.599Z,18.90
2022-09-07T04:27:01.573Z,18.42
2022-09-07T04:29:31.469Z,18.61
2022-09-07T04:32:15.539Z,18.27
2022-09-07T04:34:47.952Z,18.90
2022-09-07T04:37:22.468Z,18.30
2022-09-07T04:39:51.441Z,18.89
2022-09-07T04:42:33.217Z,18.88
2022-09-07T04:45:21.191Z,18.12
2022-09-07T04:48:21.246Z,18.80
2022-09-07T04:51:15.723Z,18.16
2022-09-07T04:53:58.984Z,18.81
2022-09-07T04:59:10.370Z,18.46
2022-09-07T05:01:39.985Z,17.46
2022-09-07T05:04:15.862Z,18.69
2022-09-07T05:06:47.361Z,17.75
2022-09-07T05:10:02.242Z,17.41
2022-09-07T05:12:34.048Z,18.42
2022-09-07T05:15:13.577Z,18.57
2022-09-07T05:17:45.581Z,18.34
2022-09-07T05:20:31.391Z,18.12
2022-09-07T05:23:05.738Z,18.40
2022-09-07T05:25:35.053Z,18.60
2022-09-07T05:28:02.263Z,17.54
2022-09-07T05:34:31.053Z,18.06
2022-09-07T05:40:08.916Z,18.37
2022-09-07T05:43:21.346Z,17.50
2022-09-07T05:46:32.741Z,18.65
2022-09-07T05:49:02.366Z,17.42
2022-09-07T05:51:35.205Z,18.01
2022-09-07T05:54:31.575Z,18.68
2022-09-07T05:57:04.245Z,18.70
2022-09-07T05:59:56.985Z,17.43
2022-09-07T06:02:28.412Z,18.27
2022-09-07T06:05:32.114Z,17.97
2022-09-07T06:11:44.968Z,17.56
2022-09-07T06:17:50.457Z,18.00
2022-09-07T06:34:23.908Z,18.73
2022-09-07T06:37:35.106Z,18.76
2022-09-07T06:56:46.763Z,18.96
2022-09-07T06:59:20.006Z,18.97
2022-09-07T07:01:54.490Z,18.60
2022-09-07T07:04:29.218Z,19.06
2022-09-07T07:07:06.372Z,18.55
2022-09-07T07:09:38.932Z,19.12
2022-09-07T07:12:06.144Z,19.09
2022-09-07T07:14:44.960Z,19.17
2022-09-07T07:17:23.229Z,18.33
2022-09-07T07:19:55.387Z,19.24
2022-09-07T07:22:47.903Z,18.30
2022-09-07T07:25:21.486Z,19.14
2022-09-07T07:27:51.344Z,19.12
2022-09-07T07:30:31.783Z,19.50
2022-09-07T07:33:04.361Z,19.54
2022-09-07T07:35:36.952Z,19.59
2022-09-07T07:43:54.103Z,19.77
2022-09-07T07:46:27.145Z,19.26
2022-09-07T07:49:06.724Z,19.95
2022-09-07T07:54:32.666Z,20.05
2022-09-07T07:57:01.415Z,19.53
2022-09-07T07:59:39.060Z,19.88
2022-09-07T08:02:16.358Z,20.33
2022-09-07T08:04:53.815Z,19.87
2022-09-07T08:07:22.636Z,20.12
2022-09-07T08:09:52.572Z,20.50
2022-09-07T08:12:29.092Z,20.57
2022-09-07T08:15:02.988Z,19.80
2022-09-07T08:17:31.779Z,19.89
2022-09-07T08:19:58.916Z,20.75
2022-09-07T08:22:34.741Z,20.83
2022-09-07T08:25:03.769Z,20.60
2022-09-07T08:27:32.898Z,20.72
2022-09-07T08:30:00.386Z,20.41
2022-09-07T08:32:39.422Z,20.88
2022-09-07T08:35:06.979Z,20.87
2022-09-07T08:37:34.003Z,20.16
2022-09-07T08:40:08.117Z,20.84
2022-09-07T08:42:55.498Z,20.43
2022-09-07T08:45:29.616Z,20.01
2022-09-07T08:47:57.429Z,20.84
2022-09-07T08:50:32.704Z,19.76
2022-09-07T08:53:09.300Z,20.40
2022-09-07T08:55:44.778Z,20.89
2022-09-07T08:58:45.183Z,20.55
2022-09-07T09:01:31.935Z,20.35
2022-09-07T09:04:22.854Z,20.96
2022-09-07T09:12:39.589Z,20.85
2022-09-07T09:15:20.860Z,20.62
2022-09-07T09:17:57.051Z,21.35
2022-09-07T09:20:41.492Z,20.22
2022-09-07T09:23:22.847Z,21.37
2022-09-07T09:25:55.062Z,20.40
2022-09-07T09:28:32.403Z,21.36
2022-09-07T09:34:35.819Z,21.43
2022-09-07T09:40:02.992Z,21.50
2022-09-07T09:42:55.526Z,21.66
2022-09-07T09:52:31.826Z,21.30
2022-09-07T10:57:37.693Z,28.93
2022-09-07T11:43:11.433Z,28.31
2022-09-07T11:45:43.081Z,27.96
2022-09-07T11:48:33.254Z,27.70
2022-09-07T11:51:27.158Z,27.77
2022-09-07T11:54:02.787Z,28.19
2022-09-07T11:56:36.610Z,27.54
2022-09-07T11:59:37.283Z,28.12
2022-09-07T12:06:31.701Z,27.02
2022-09-07T12:58:52.353Z,27.27
2022-09-07T15:13:26.256Z,31.22
2022-09-07T15:16:00.325Z,31.06
2022-09-07T15:25:17.443Z,29.33
2022-09-07T15:27:48.225Z,28.80
2022-09-07T15:34:01.824Z,29.70
2022-09-07T15:40:14.691Z,29.80
2022-09-07T15:43:23.552Z,30.28
2022-09-07T15:49:16.289Z,30.16
2022-09-07T15:52:17.808Z,29.51
2022-09-07T15:54:56.621Z,29.14
2022-09-07T15:58:05.500Z,28.96
2022-09-07T16:04:55.508Z,27.72
2022-09-07T16:11:04.709Z,27.42
2022-09-07T16:13:48.244Z,27.62
2022-09-07T16:29:23.255Z,25.64
2022-09-07T18:40:37.827Z,21.35
2022-09-07T20:10:24.275Z,20.81
2022-09-07T20:29:56.480Z,21.49
2022-09-07T20:32:48.799Z,20.85
2022-09-07T20:35:40.087Z,21.15
2022-09-07T20:38:19.480Z,20.30
2022-09-07T20:41:28.268Z,21.34
2022-09-07T20:54:50.337Z,20.55
2022-09-07T21:04:01.049Z,19.93
2022-09-07T21:07:08.120Z,20.70
2022-09-07T21:13:42.568Z,19.90
2022-09-07T21:16:53.482Z,19.76
2022-09-07T21:19:36.600Z,19.99
2022-09-07T21:22:36.112Z,20.56
2022-09-07T21:29:06.312Z,19.65
2022-09-07T21:41:39.979Z,19.85
2022-09-07T21:44:32.794Z,19.86
2022-09-07T21:50:02.855Z,20.23
2022-09-07T21:56:55.027Z,20.37
2022-09-07T22:09:56.405Z,19.40
2022-09-07T22:13:22.579Z,19.71
2022-09-07T22:16:22.122Z,19.47
2022-09-07T22:21:54.409Z,19.64
2022-09-07T22:30:59.531Z,19.96
2022-09-07T22:33:51.725Z,19.04
2022-09-07T22:36:27.554Z,19.93
2022-09-07T22:39:25.849Z,18.91
2022-09-07T22:42:30.333Z,19.91
2022-09-07T22:48:19.272Z,19.12
2022-09-07T22:51:10.267Z,19.54
2022-09-07T22:54:21.274Z,18.81
2022-09-07T22:57:13.112Z,19.62
2022-09-07T23:02:45.265Z,19.82
2022-09-07T23:05:38.377Z,18.68
2022-09-07T23:11:48.925Z,19.63
2022-09-07T23:14:37.711Z,19.60
2022-09-07T23:20:41.033Z,18.81
2022-09-07T23:23:24.247Z,18.73
2022-09-07T23:29:14.368Z,19.06
2022-09-07T23:35:41.970Z,18.55
2022-09-07T23:38:48.350Z,19.28
2022-09-07T23:47:57.644Z,18.70
2022-09-07T23:50:43.844Z,19.06
2022-09-07T23:56:10.988Z,19.20
2022-09-07T23:59:01.755Z,18.60
